Terminal Aerodrome Forecast
Issued by NWS

Home | Current Version | Previous Version | Text Only | Print | Product List | Glossary On
Versions: 1 2 3 4 5 6 7 8 9 10 11 12 13 14 15 16 17 18 19
000
FTUS46 KLOX 251233 AAA
TAFSBP
TAF AMD
KSBP 251233Z 2513/2612 VRB03KT P6SM OVC012
     FM251800 30008KT P6SM SCT015
     FM252100 31015KT P6SM SCT250
     FM260400 31008KT P6SM BKN015
     FM261100 VRB03KT P6SM BKN008=

USA.gov is the U.S. government's official web portal to all federal, state and local government web resources and services.